Time;durP1;ratioP1;P1;durP2;ratioP2;P2;SDS_P1;SDS_P2;PMS_P1;PMS_P2;Temp;Humidity;BMP_temperature;BMP_pressure;BME280_temperature;BME280_humidity;BME280_pressure;Samples;Min_cycle;Max_cycle;Signal;HPM_P1;HPM_P2
2022/02/15 00:01:41;;;;;;;;;;;21.90;33.10;;;;;;5036665;28;19909;-45
2022/02/15 00:04:07;;;;;;;;;;;21.90;33.10;;;;;;5035232;28;20035;-44
2022/02/15 00:06:32;;;;;;;;;;;21.90;33.10;;;;;;5045290;28;19973;-43
2022/02/15 00:08:58;;;;;;;;;;;21.90;33.10;;;;;;5055368;28;20355;-45
2022/02/15 00:11:24;;;;;;;;;;;21.90;33.10;;;;;;5044490;28;19913;-42
2022/02/15 00:13:50;;;;;;;;;;;21.90;33.10;;;;;;5037557;28;20062;-47
2022/02/15 00:16:16;;;;;;;;;;;21.90;33.10;;;;;;5048557;28;20236;-46
2022/02/15 00:18:42;;;;;;;;;;;21.90;33.10;;;;;;5055090;28;19911;-45
2022/02/15 00:21:08;;;;;;;;;;;21.90;33.00;;;;;;5044703;28;19909;-44
2022/02/15 00:23:33;;;;;;;;;;;21.90;33.00;;;;;;5055181;28;19983;-48
2022/02/15 00:25:59;;;;;;;;;;;21.90;33.00;;;;;;5048264;28;19905;-49
2022/02/15 00:28:25;;;;;;;;;;;21.90;33.00;;;;;;5034950;28;19920;-44
2022/02/15 00:30:50;;;;;;;;;;;21.90;33.00;;;;;;5034827;28;20011;-50
2022/02/15 00:33:16;;;;;;;;;;;21.90;33.00;;;;;;5045591;28;19915;-50
2022/02/15 00:35:44;;;;;;;;;;;21.90;33.00;;;;;;5049174;28;19905;-48
2022/02/15 00:38:10;;;;;;;;;;;21.90;33.00;;;;;;5036150;28;19915;-45
2022/02/15 00:40:36;;;;;;;;;;;21.90;33.10;;;;;;5029428;28;20011;-46
2022/02/15 00:43:02;;;;;;;;;;;21.90;33.10;;;;;;5052730;28;20370;-48
2022/02/15 00:45:27;;;;;;;;;;;21.90;33.10;;;;;;5053031;28;19909;-45
2022/02/15 00:47:53;;;;;;;;;;;21.90;33.10;;;;;;5037909;28;19959;-44
2022/02/15 00:50:19;;;;;;;;;;;21.90;33.10;;;;;;5040188;28;19943;-44
2022/02/15 00:52:44;;;;;;;;;;;21.90;33.10;;;;;;5040857;28;19983;-45
2022/02/15 00:55:13;;;;;;;;;;;21.90;33.00;;;;;;5021568;28;19966;-43
2022/02/15 00:57:42;;;;;;;;;;;21.90;33.00;;;;;;5033827;28;19913;-47
2022/02/15 01:00:09;;;;;;;;;;;21.90;33.00;;;;;;5057995;28;20276;-43
2022/02/15 01:02:34;;;;;;;;;;;21.90;33.00;;;;;;5045100;28;19915;-44
2022/02/15 01:05:00;;;;;;;;;;;21.90;32.90;;;;;;5038805;28;19909;-44
2022/02/15 01:07:26;;;;;;;;;;;21.90;32.90;;;;;;5050867;28;19909;-43
2022/02/15 01:09:51;;;;;;;;;;;21.90;32.90;;;;;;5023477;28;20279;-44
2022/02/15 01:12:17;;;;;;;;;;;21.90;32.90;;;;;;5049828;28;20274;-44
2022/02/15 01:14:43;;;;;;;;;;;21.90;32.90;;;;;;5029722;28;19955;-47
2022/02/15 01:17:08;;;;;;;;;;;21.90;32.90;;;;;;5049636;28;19978;-47
2022/02/15 01:19:35;;;;;;;;;;;21.90;32.90;;;;;;5049591;28;19967;-51
2022/02/15 01:22:00;;;;;;;;;;;21.90;32.90;;;;;;5029560;28;19951;-49
2022/02/15 01:24:26;;;;;;;;;;;21.90;32.90;;;;;;5052701;28;19949;-46
2022/02/15 01:26:52;;;;;;;;;;;21.90;32.90;;;;;;5031185;28;19909;-46
2022/02/15 01:29:18;;;;;;;;;;;21.90;32.90;;;;;;5020609;28;19971;-49
2022/02/15 01:31:44;;;;;;;;;;;21.90;32.90;;;;;;5036769;28;19953;-44
2022/02/15 01:34:11;;;;;;;;;;;21.90;32.90;;;;;;5038543;28;19984;-44
2022/02/15 01:36:37;;;;;;;;;;;21.90;32.90;;;;;;5026959;28;20351;-45
2022/02/15 01:39:03;;;;;;;;;;;21.90;32.90;;;;;;5027541;28;19940;-51
2022/02/15 01:41:29;;;;;;;;;;;21.90;32.90;;;;;;5034469;28;19999;-47
2022/02/15 01:43:55;;;;;;;;;;;21.90;32.90;;;;;;5044953;28;19920;-49
2022/02/15 01:46:20;;;;;;;;;;;21.90;32.90;;;;;;5034931;28;20011;-46
2022/02/15 01:48:47;;;;;;;;;;;21.90;32.90;;;;;;5034690;28;19905;-43
2022/02/15 01:51:15;;;;;;;;;;;21.90;32.90;;;;;;5036822;28;19912;-44
2022/02/15 01:53:41;;;;;;;;;;;21.90;33.00;;;;;;5029285;28;19909;-47
2022/02/15 01:56:08;;;;;;;;;;;21.80;32.90;;;;;;5038924;28;19991;-43
2022/02/15 01:58:36;;;;;;;;;;;21.80;32.90;;;;;;5039359;28;20344;-42
2022/02/15 02:01:09;;;;;;;;;;;21.90;33.00;;;;;;5033925;28;20320;-46
2022/02/15 02:03:40;;;;;;;;;;;21.80;32.90;;;;;;5026233;28;19920;-43
2022/02/15 02:06:06;;;;;;;;;;;21.80;32.90;;;;;;5017508;28;19909;-43
2022/02/15 02:08:33;;;;;;;;;;;21.80;32.90;;;;;;5017919;28;19905;-44
2022/02/15 02:11:00;;;;;;;;;;;21.80;32.90;;;;;;5024192;28;19924;-43
2022/02/15 02:13:44;;;;;;;;;;;21.80;33.00;;;;;;5017905;28;19928;-45
2022/02/15 02:16:10;;;;;;;;;;;21.80;33.00;;;;;;5016736;28;20340;-44
2022/02/15 02:18:43;;;;;;;;;;;21.80;33.00;;;;;;5020702;28;19905;-43
2022/02/15 02:21:11;;;;;;;;;;;21.80;33.00;;;;;;5019831;28;19971;-46
2022/02/15 02:23:37;;;;;;;;;;;21.70;32.90;;;;;;5033385;28;20612;-43
2022/02/15 02:26:10;;;;;;;;;;;21.80;33.00;;;;;;5018906;28;19909;-45
2022/02/15 02:28:38;;;;;;;;;;;21.80;33.00;;;;;;5025299;28;19905;-45
2022/02/15 02:31:05;;;;;;;;;;;21.70;33.00;;;;;;5018281;28;19995;-44
2022/02/15 02:33:34;;;;;;;;;;;21.70;33.00;;;;;;5030762;28;19905;-46
2022/02/15 02:36:00;;;;;;;;;;;21.70;33.00;;;;;;5026696;28;19909;-45
2022/02/15 02:38:26;;;;;;;;;;;21.70;33.00;;;;;;5022112;28;19913;-45
2022/02/15 02:40:57;;;;;;;;;;;21.70;33.00;;;;;;5027827;28;19912;-42
2022/02/15 02:43:23;;;;;;;;;;;21.80;33.80;;;;;;5023071;28;20400;-45
2022/02/15 02:45:49;;;;;;;;;;;21.70;33.10;;;;;;5024254;28;20023;-43
2022/02/15 02:48:16;;;;;;;;;;;21.70;33.20;;;;;;5030605;28;19935;-44
2022/02/15 02:50:41;;;;;;;;;;;21.70;33.20;;;;;;5031488;28;19916;-45
2022/02/15 02:53:10;;;;;;;;;;;21.70;33.20;;;;;;5035874;28;19905;-48
2022/02/15 02:55:40;;;;;;;;;;;21.70;33.20;;;;;;5016335;28;20041;-44
2022/02/15 02:58:05;;;;;;;;;;;21.70;33.20;;;;;;5016410;28;20007;-43
2022/02/15 03:00:31;;;;;;;;;;;21.70;33.20;;;;;;5024754;28;19939;-45
2022/02/15 03:03:07;;;;;;;;;;;21.70;33.20;;;;;;5015657;28;20230;-47
2022/02/15 03:05:35;;;;;;;;;;;21.70;33.20;;;;;;5017595;28;19917;-46
2022/02/15 03:08:01;;;;;;;;;;;21.70;33.20;;;;;;5028594;28;19966;-47
2022/02/15 03:10:27;;;;;;;;;;;21.70;33.20;;;;;;5025032;28;19971;-48
2022/02/15 03:12:53;;;;;;;;;;;21.60;33.20;;;;;;5025991;28;19917;-44
2022/02/15 03:15:19;;;;;;;;;;;21.60;33.20;;;;;;5025453;28;19906;-45
2022/02/15 03:17:45;;;;;;;;;;;21.60;33.20;;;;;;5016163;28;19916;-45
2022/02/15 03:20:11;;;;;;;;;;;21.60;33.20;;;;;;5020006;28;20223;-44
2022/02/15 03:22:39;;;;;;;;;;;21.60;33.20;;;;;;4999953;28;19905;-46
2022/02/15 03:25:05;;;;;;;;;;;21.60;33.30;;;;;;5019212;28;19932;-47
2022/02/15 03:27:32;;;;;;;;;;;21.60;33.20;;;;;;5016765;28;19913;-47
2022/02/15 03:29:59;;;;;;;;;;;21.60;33.30;;;;;;5032304;28;19905;-48
2022/02/15 03:32:27;;;;;;;;;;;21.60;33.20;;;;;;5014744;28;19938;-49
2022/02/15 03:34:53;;;;;;;;;;;21.60;33.20;;;;;;5017022;28;19905;-49
2022/02/15 03:37:19;;;;;;;;;;;21.60;33.30;;;;;;5017512;28;19905;-50
2022/02/15 03:39:46;;;;;;;;;;;21.60;33.30;;;;;;5015104;28;20333;-50
2022/02/15 03:44:58;;;;;;;;;;;21.60;33.30;;;;;;5023309;28;20353;-50
2022/02/15 03:47:40;;;;;;;;;;;21.60;33.30;;;;;;5034631;28;19912;-48
2022/02/15 03:50:07;;;;;;;;;;;21.60;33.90;;;;;;5032121;28;19905;-48
2022/02/15 03:52:33;;;;;;;;;;;21.50;33.30;;;;;;5026974;28;19924;-46
2022/02/15 03:54:59;;;;;;;;;;;21.50;33.90;;;;;;5025569;28;19905;-45
2022/02/15 03:57:25;;;;;;;;;;;21.50;33.30;;;;;;5023593;28;19955;-44
2022/02/15 03:59:51;;;;;;;;;;;21.50;33.30;;;;;;5031853;28;20003;-44
2022/02/15 04:02:24;;;;;;;;;;;21.50;33.30;;;;;;5032412;28;20320;-46
2022/02/15 04:04:51;;;;;;;;;;;21.50;33.40;;;;;;5032582;28;19944;-46
2022/02/15 04:07:19;;;;;;;;;;;21.50;33.40;;;;;;5016939;28;19913;-44
2022/02/15 04:09:45;;;;;;;;;;;21.50;33.40;;;;;;5034164;28;19917;-46
2022/02/15 04:12:11;;;;;;;;;;;21.50;33.40;;;;;;5031581;28;19924;-46
2022/02/15 04:14:40;;;;;;;;;;;21.50;33.40;;;;;;5021447;28;19909;-45
2022/02/15 04:17:07;;;;;;;;;;;21.50;33.40;;;;;;5021245;28;19967;-45
2022/02/15 04:19:33;;;;;;;;;;;21.50;33.40;;;;;;5033589;28;20371;-45
2022/02/15 04:22:00;;;;;;;;;;;21.50;33.40;;;;;;5020714;28;19915;-45
2022/02/15 04:24:27;;;;;;;;;;;21.50;33.40;;;;;;5033350;28;19975;-43
2022/02/15 04:26:53;;;;;;;;;;;21.50;33.50;;;;;;5023775;28;20325;-44
2022/02/15 04:29:19;;;;;;;;;;;21.50;33.50;;;;;;5017957;28;20307;-44
2022/02/15 04:31:52;;;;;;;;;;;21.50;33.50;;;;;;5025301;28;19936;-46
2022/02/15 04:34:18;;;;;;;;;;;21.50;33.50;;;;;;5037918;28;19966;-46
2022/02/15 04:36:44;;;;;;;;;;;21.50;33.50;;;;;;5036733;28;19905;-47
2022/02/15 04:39:12;;;;;;;;;;;21.50;33.50;;;;;;5027352;28;20324;-49
2022/02/15 04:41:42;;;;;;;;;;;21.50;33.50;;;;;;5036095;28;19905;-47
2022/02/15 04:44:12;;;;;;;;;;;21.50;33.50;;;;;;5026692;28;19905;-44
2022/02/15 04:46:38;;;;;;;;;;;21.50;33.50;;;;;;5036716;28;19905;-46
2022/02/15 04:49:04;;;;;;;;;;;21.50;33.50;;;;;;5027811;28;19905;-46
2022/02/15 04:51:31;;;;;;;;;;;21.50;33.50;;;;;;5033988;28;19920;-46
2022/02/15 04:53:58;;;;;;;;;;;21.50;33.50;;;;;;5020015;28;19917;-44
2022/02/15 04:56:24;;;;;;;;;;;21.50;33.50;;;;;;5037592;28;19958;-43
2022/02/15 04:58:50;;;;;;;;;;;21.40;33.40;;;;;;5030652;28;20288;-45
2022/02/15 05:01:16;;;;;;;;;;;21.40;33.40;;;;;;5037637;28;19956;-45
2022/02/15 05:04:48;;;;;;;;;;;21.50;33.50;;;;;;5030250;28;19905;-44
2022/02/15 05:06:58;;;;;;;;;;;21.50;33.50;;;;;;5017950;28;19912;-46
2022/02/15 05:09:27;;;;;;;;;;;21.40;33.40;;;;;;5031402;28;19964;-45
2022/02/15 05:11:55;;;;;;;;;;;21.40;33.40;;;;;;5017762;28;19909;-47
2022/02/15 05:14:21;;;;;;;;;;;21.40;33.40;;;;;;5021317;28;19909;-46
2022/02/15 05:16:48;;;;;;;;;;;21.50;33.50;;;;;;5037199;28;19905;-47
2022/02/15 05:19:20;;;;;;;;;;;21.40;33.40;;;;;;5036674;28;20325;-49
2022/02/15 05:22:03;;;;;;;;;;;21.40;33.40;;;;;;5034708;28;19918;-45
2022/02/15 05:24:38;;;;;;;;;;;21.40;33.40;;;;;;5031575;28;19905;-43
2022/02/15 05:27:04;;;;;;;;;;;21.40;33.50;;;;;;5035985;28;19916;-46
2022/02/15 05:29:49;;;;;;;;;;;21.40;33.50;;;;;;5032279;28;19920;-48
2022/02/15 05:32:20;;;;;;;;;;;21.40;33.50;;;;;;5035328;28;19967;-44
2022/02/15 05:34:46;;;;;;;;;;;21.40;33.50;;;;;;5036192;28;19913;-43
2022/02/15 05:37:14;;;;;;;;;;;21.40;33.50;;;;;;5035997;28;19916;-44
2022/02/15 05:39:44;;;;;;;;;;;21.40;33.50;;;;;;5018449;28;20516;-45
2022/02/15 05:42:10;;;;;;;;;;;21.40;33.50;;;;;;5016936;28;19995;-53
2022/02/15 05:44:37;;;;;;;;;;;21.40;33.50;;;;;;5024980;28;19933;-46
2022/02/15 05:47:06;;;;;;;;;;;21.40;33.50;;;;;;5016796;28;19905;-47
2022/02/15 05:50:49;;;;;;;;;;;21.40;33.50;;;;;;5025441;28;19905;-44
2022/02/15 05:52:22;;;;;;;;;;;21.40;33.60;;;;;;5033997;28;19920;-49
2022/02/15 05:54:49;;;;;;;;;;;21.40;33.60;;;;;;5021489;28;19905;-47
2022/02/15 05:57:15;;;;;;;;;;;21.40;33.60;;;;;;5016829;28;19916;-45
2022/02/15 05:59:48;;;;;;;;;;;21.40;33.60;;;;;;5032951;28;19970;-44
2022/02/15 06:02:24;;;;;;;;;;;21.40;34.20;;;;;;5034797;28;20034;-42
2022/02/15 06:04:55;;;;;;;;;;;21.40;33.60;;;;;;5033469;28;19913;-43
2022/02/15 06:07:29;;;;;;;;;;;21.40;33.60;;;;;;5036798;28;20290;-47
2022/02/15 06:10:04;;;;;;;;;;;21.40;33.60;;;;;;5018960;28;19905;-45
2022/02/15 06:12:32;;;;;;;;;;;21.40;33.60;;;;;;5026922;28;19918;-49
2022/02/15 06:15:04;;;;;;;;;;;21.40;33.60;;;;;;5034912;28;19909;-45
2022/02/15 06:17:47;;;;;;;;;;;21.40;33.60;;;;;;5025489;28;19968;-46
2022/02/15 06:20:13;;;;;;;;;;;21.40;33.60;;;;;;5028710;28;20341;-45
2022/02/15 06:22:42;;;;;;;;;;;21.40;33.70;;;;;;5035053;28;20228;-44
2022/02/15 06:25:08;;;;;;;;;;;21.40;33.70;;;;;;5022271;28;19986;-44
2022/02/15 06:27:41;;;;;;;;;;;21.40;33.70;;;;;;5035165;28;19909;-47
2022/02/15 06:30:12;;;;;;;;;;;21.40;33.70;;;;;;5032901;28;19971;-46
2022/02/15 06:32:45;;;;;;;;;;;21.30;33.70;;;;;;5024992;28;19920;-47
2022/02/15 06:35:14;;;;;;;;;;;21.40;33.80;;;;;;5032509;28;19913;-45
2022/02/15 06:37:41;;;;;;;;;;;21.30;33.70;;;;;;5024119;28;19915;-45
2022/02/15 06:40:06;;;;;;;;;;;21.30;33.70;;;;;;5024275;28;20220;-45
2022/02/15 06:42:38;;;;;;;;;;;21.30;33.70;;;;;;5026401;28;19905;-44
2022/02/15 06:45:04;;;;;;;;;;;21.30;33.80;;;;;;5016532;28;19912;-45
2022/02/15 06:47:30;;;;;;;;;;;21.30;33.70;;;;;;5025427;28;20004;-45
2022/02/15 06:50:02;;;;;;;;;;;21.30;33.80;;;;;;5015060;28;19966;-46
2022/02/15 06:52:54;;;;;;;;;;;21.30;33.80;;;;;;5015567;28;19967;-44
2022/02/15 06:55:32;;;;;;;;;;;21.30;33.80;;;;;;5019329;28;20300;-53
2022/02/15 06:57:58;;;;;;;;;;;21.30;33.80;;;;;;5015590;28;19944;-44
2022/02/15 07:00:23;;;;;;;;;;;21.30;33.80;;;;;;5029953;28;20249;-45
2022/02/15 07:02:49;;;;;;;;;;;21.30;33.80;;;;;;5021071;28;19917;-46
2022/02/15 07:05:17;;;;;;;;;;;21.30;33.80;;;;;;5015661;28;19910;-45
2022/02/15 07:07:48;;;;;;;;;;;21.30;33.90;;;;;;5016526;28;19989;-49
2022/02/15 07:10:19;;;;;;;;;;;21.30;33.90;;;;;;5021627;28;20054;-47
2022/02/15 07:12:50;;;;;;;;;;;21.30;33.90;;;;;;5031680;28;19913;-48
2022/02/15 07:15:19;;;;;;;;;;;21.30;33.90;;;;;;5026768;28;20244;-45
2022/02/15 07:17:49;;;;;;;;;;;21.20;33.80;;;;;;5028299;28;19916;-47
2022/02/15 07:20:34;;;;;;;;;;;21.30;33.90;;;;;;5023126;28;19936;-45
2022/02/15 07:23:19;;;;;;;;;;;21.30;34.00;;;;;;5028176;28;19916;-46
2022/02/15 07:26:05;;;;;;;;;;;21.30;34.00;;;;;;4988209;28;20368;-45
2022/02/15 07:28:49;;;;;;;;;;;21.30;34.00;;;;;;5015226;28;19967;-45
2022/02/15 07:31:16;;;;;;;;;;;21.30;34.00;;;;;;5025526;28;19909;-45
2022/02/15 07:33:45;;;;;;;;;;;21.20;34.00;;;;;;5031761;28;19905;-45
2022/02/15 07:36:11;;;;;;;;;;;21.20;34.00;;;;;;5024432;28;19956;-48
2022/02/15 07:38:36;;;;;;;;;;;21.20;34.00;;;;;;5015302;28;19947;-45
2022/02/15 07:41:02;;;;;;;;;;;21.30;34.10;;;;;;5016667;28;20577;-49
2022/02/15 07:43:28;;;;;;;;;;;21.20;34.00;;;;;;5014398;28;19913;-45
2022/02/15 07:45:59;;;;;;;;;;;21.20;34.20;;;;;;5024680;28;19955;-45
2022/02/15 07:48:25;;;;;;;;;;;21.20;34.30;;;;;;5018630;28;19949;-45
2022/02/15 07:50:50;;;;;;;;;;;21.20;34.40;;;;;;5016486;28;19924;-49
2022/02/15 07:53:16;;;;;;;;;;;21.30;34.50;;;;;;5023059;28;19960;-47
2022/02/15 07:55:42;;;;;;;;;;;21.30;34.40;;;;;;5023629;28;19916;-43
2022/02/15 07:58:10;;;;;;;;;;;21.40;34.50;;;;;;5014728;28;20222;-48
2022/02/15 08:00:36;;;;;;;;;;;21.40;34.30;;;;;;5028471;28;20038;-44
2022/02/15 08:03:01;;;;;;;;;;;21.50;34.30;;;;;;5041424;28;19916;-47
2022/02/15 08:05:28;;;;;;;;;;;21.70;34.30;;;;;;5042776;28;19905;-45
2022/02/15 08:07:59;;;;;;;;;;;21.70;34.20;;;;;;5036950;28;20251;-45
2022/02/15 08:10:26;;;;;;;;;;;21.80;34.10;;;;;;5047294;28;19919;-43
2022/02/15 08:12:57;;;;;;;;;;;21.90;34.10;;;;;;5068119;28;19971;-48
2022/02/15 08:15:23;;;;;;;;;;;22.00;34.10;;;;;;5044112;28;19904;-47
2022/02/15 08:17:49;;;;;;;;;;;22.10;34.00;;;;;;5034990;28;19905;-47
2022/02/15 08:20:15;;;;;;;;;;;22.10;33.90;;;;;;5038372;28;19905;-44
2022/02/15 08:22:41;;;;;;;;;;;22.20;33.90;;;;;;5047274;28;20050;-46
2022/02/15 08:25:07;;;;;;;;;;;22.30;33.80;;;;;;5038422;28;19930;-47
2022/02/15 08:27:33;;;;;;;;;;;22.40;33.80;;;;;;5039033;28;19919;-43
2022/02/15 08:29:58;;;;;;;;;;;22.40;33.80;;;;;;5042422;28;20228;-44
2022/02/15 08:32:24;;;;;;;;;;;22.50;33.70;;;;;;5039532;28;19999;-46
2022/02/15 08:34:50;;;;;;;;;;;22.60;33.70;;;;;;5033950;28;19964;-45
2022/02/15 08:37:16;;;;;;;;;;;22.60;33.60;;;;;;5037850;28;19959;-43
2022/02/15 08:39:42;;;;;;;;;;;22.70;33.60;;;;;;5040150;28;19909;-47
2022/02/15 08:42:10;;;;;;;;;;;22.80;33.60;;;;;;5039417;28;20378;-45
2022/02/15 08:44:36;;;;;;;;;;;22.80;33.50;;;;;;5039406;28;19940;-44
2022/02/15 08:47:08;;;;;;;;;;;22.90;33.40;;;;;;5044232;28;19940;-46
2022/02/15 08:49:37;;;;;;;;;;;23.00;33.40;;;;;;5036708;28;19999;-44
2022/02/15 08:52:04;;;;;;;;;;;23.00;33.30;;;;;;5048156;28;19924;-47
2022/02/15 08:54:30;;;;;;;;;;;23.10;33.30;;;;;;5033436;28;20232;-45
2022/02/15 08:56:55;;;;;;;;;;;23.10;33.30;;;;;;5045016;28;19915;-44
2022/02/15 08:59:21;;;;;;;;;;;23.20;33.30;;;;;;5046332;28;19913;-44
2022/02/15 09:01:48;;;;;;;;;;;23.20;33.20;;;;;;5036916;28;19952;-46
2022/02/15 09:04:14;;;;;;;;;;;23.30;33.20;;;;;;5043235;28;19959;-44
2022/02/15 09:06:41;;;;;;;;;;;23.30;33.10;;;;;;5036946;28;19904;-43
2022/02/15 09:09:15;;;;;;;;;;;23.30;33.10;;;;;;5039189;28;20219;-47
2022/02/15 09:11:41;;;;;;;;;;;23.40;33.10;;;;;;5045176;28;20007;-44
2022/02/15 09:14:07;;;;;;;;;;;23.40;33.00;;;;;;5039566;28;20033;-45
2022/02/15 09:16:32;;;;;;;;;;;23.40;33.00;;;;;;5050927;28;20008;-44
2022/02/15 09:18:59;;;;;;;;;;;23.50;33.00;;;;;;5047445;28;19916;-45
2022/02/15 09:21:25;;;;;;;;;;;23.50;32.90;;;;;;5041439;28;19905;-52
2022/02/15 09:23:50;;;;;;;;;;;23.60;32.90;;;;;;5039657;28;19920;-51
2022/02/15 09:26:16;;;;;;;;;;;23.60;32.80;;;;;;5039951;28;19908;-49
2022/02/15 09:28:42;;;;;;;;;;;23.60;32.80;;;;;;5041806;28;20391;-44
2022/02/15 09:31:08;;;;;;;;;;;23.60;32.70;;;;;;5042366;28;19912;-54
2022/02/15 09:33:33;;;;;;;;;;;23.70;32.80;;;;;;5054834;28;19936;-46
2022/02/15 09:35:59;;;;;;;;;;;23.70;32.70;;;;;;5050204;28;20338;-48
2022/02/15 09:38:24;;;;;;;;;;;23.70;32.70;;;;;;5056553;28;20225;-45
2022/02/15 09:40:52;;;;;;;;;;;23.70;32.60;;;;;;5046181;28;19904;-43
2022/02/15 09:43:18;;;;;;;;;;;23.70;32.60;;;;;;5038000;28;19928;-45
2022/02/15 09:45:47;;;;;;;;;;;23.70;32.60;;;;;;5041915;28;19905;-47
2022/02/15 09:48:18;;;;;;;;;;;23.70;32.50;;;;;;5037526;28;19911;-48
2022/02/15 09:50:44;;;;;;;;;;;23.70;32.50;;;;;;5051908;28;19915;-44
2022/02/15 09:53:10;;;;;;;;;;;23.60;32.50;;;;;;5057415;28;19908;-45
2022/02/15 09:55:35;;;;;;;;;;;23.70;32.60;;;;;;5043874;28;19944;-47
2022/02/15 09:58:01;;;;;;;;;;;23.60;33.20;;;;;;5048405;28;20378;-49
2022/02/15 10:00:27;;;;;;;;;;;23.60;32.50;;;;;;5044801;28;19913;-45
2022/02/15 10:02:53;;;;;;;;;;;23.60;32.60;;;;;;5037254;28;19905;-46
2022/02/15 10:05:19;;;;;;;;;;;23.60;32.60;;;;;;5047548;28;19928;-42
2022/02/15 10:07:47;;;;;;;;;;;23.50;32.60;;;;;;5056400;28;19911;-45
2022/02/15 10:10:13;;;;;;;;;;;23.50;32.50;;;;;;5047209;28;20003;-46
2022/02/15 10:12:38;;;;;;;;;;;23.50;32.60;;;;;;5037413;28;20062;-43
2022/02/15 10:15:08;;;;;;;;;;;23.40;32.50;;;;;;5047409;28;19919;-43
2022/02/15 10:17:35;;;;;;;;;;;23.40;32.50;;;;;;5047368;28;19970;-46
2022/02/15 10:20:02;;;;;;;;;;;23.40;32.60;;;;;;5047617;28;19913;-45
2022/02/15 10:22:28;;;;;;;;;;;23.40;32.70;;;;;;5051394;28;19915;-46
2022/02/15 10:24:55;;;;;;;;;;;23.30;32.70;;;;;;5049720;28;19909;-48
2022/02/15 10:27:29;;;;;;;;;;;23.30;32.70;;;;;;5048165;28;19919;-46
2022/02/15 10:29:55;;;;;;;;;;;23.20;33.40;;;;;;5050705;28;19920;-45
2022/02/15 10:32:22;;;;;;;;;;;23.20;32.80;;;;;;5056171;28;19916;-44
2022/02/15 10:34:48;;;;;;;;;;;23.20;32.80;;;;;;5040607;28;20363;-47
2022/02/15 10:37:15;;;;;;;;;;;23.20;32.70;;;;;;5046767;28;19937;-49
2022/02/15 10:39:42;;;;;;;;;;;23.20;32.70;;;;;;5041583;28;20324;-46
2022/02/15 10:42:12;;;;;;;;;;;23.20;32.70;;;;;;5044295;28;19915;-44
2022/02/15 10:44:48;;;;;;;;;;;23.20;32.70;;;;;;5040192;28;19928;-45
2022/02/15 10:47:14;;;;;;;;;;;23.20;32.70;;;;;;5056650;28;19905;-43
2022/02/15 10:49:40;;;;;;;;;;;23.20;32.70;;;;;;5051807;28;19995;-45
2022/02/15 10:52:06;;;;;;;;;;;23.10;32.60;;;;;;5047650;28;19908;-46
2022/02/15 10:54:31;;;;;;;;;;;23.10;32.60;;;;;;5052605;28;20341;-52
2022/02/15 10:56:59;;;;;;;;;;;23.10;32.60;;;;;;5051830;28;20206;-47
2022/02/15 10:59:27;;;;;;;;;;;23.10;32.60;;;;;;5053435;28;19904;-47
2022/02/15 11:01:59;;;;;;;;;;;23.10;32.60;;;;;;5049041;28;19904;-45
2022/02/15 11:04:27;;;;;;;;;;;23.00;32.60;;;;;;5056188;28;20308;-45
2022/02/15 11:06:52;;;;;;;;;;;23.00;32.60;;;;;;5055482;28;20333;-47
2022/02/15 11:09:23;;;;;;;;;;;23.00;32.60;;;;;;5049113;28;19964;-46
2022/02/15 11:12:19;;;;;;;;;;;23.00;32.60;;;;;;5055230;28;19913;-48
2022/02/15 11:14:48;;;;;;;;;;;23.00;32.60;;;;;;5022060;28;19905;-47
2022/02/15 11:17:17;;;;;;;;;;;23.00;32.60;;;;;;5040079;28;19905;-48
2022/02/15 11:19:42;;;;;;;;;;;23.00;32.60;;;;;;5040919;28;19916;-48
2022/02/15 11:22:18;;;;;;;;;;;23.00;33.20;;;;;;5051555;28;19905;-49
2022/02/15 11:24:43;;;;;;;;;;;22.90;32.50;;;;;;5054315;28;19904;-48
2022/02/15 11:27:13;;;;;;;;;;;22.90;32.50;;;;;;5036763;28;20346;-49
2022/02/15 11:29:46;;;;;;;;;;;22.90;32.50;;;;;;5048310;28;19924;-55
2022/02/15 11:32:23;;;;;;;;;;;22.90;32.50;;;;;;5049257;28;19913;-51
2022/02/15 11:34:54;;;;;;;;;;;22.90;32.50;;;;;;5045952;28;19905;-49
2022/02/15 11:37:22;;;;;;;;;;;22.90;32.60;;;;;;5042857;28;19909;-47
2022/02/15 11:39:58;;;;;;;;;;;22.90;32.60;;;;;;5040137;28;19987;-45
2022/02/15 11:42:39;;;;;;;;;;;22.90;32.70;;;;;;5043064;28;20003;-49
2022/02/15 11:45:14;;;;;;;;;;;22.90;32.60;;;;;;5047002;28;19996;-50
2022/02/15 11:47:44;;;;;;;;;;;23.00;32.60;;;;;;5046580;28;20224;-44
2022/02/15 11:50:13;;;;;;;;;;;23.10;32.60;;;;;;5046496;28;19909;-47
2022/02/15 11:52:39;;;;;;;;;;;23.10;32.50;;;;;;5042019;28;19935;-46
2022/02/15 11:55:06;;;;;;;;;;;23.10;32.50;;;;;;5047247;28;20011;-45
2022/02/15 11:57:31;;;;;;;;;;;23.20;32.50;;;;;;5043029;28;19908;-51
2022/02/15 11:59:57;;;;;;;;;;;23.20;32.40;;;;;;5042889;28;20011;-51
2022/02/15 12:02:23;;;;;;;;;;;23.20;32.50;;;;;;5022873;28;19955;-50
2022/02/15 12:04:52;;;;;;;;;;;23.30;32.60;;;;;;5041428;28;19905;-50
2022/02/15 12:07:18;;;;;;;;;;;23.30;32.60;;;;;;5049294;28;19904;-45
2022/02/15 12:09:43;;;;;;;;;;;23.40;32.70;;;;;;5053900;28;19924;-53
2022/02/15 12:12:11;;;;;;;;;;;23.50;32.70;;;;;;5055186;28;19913;-53
2022/02/15 12:14:37;;;;;;;;;;;23.50;32.70;;;;;;5033859;28;19908;-50
2022/02/15 12:17:03;;;;;;;;;;;23.50;32.70;;;;;;5051642;28;20319;-47
2022/02/15 12:19:30;;;;;;;;;;;23.60;32.70;;;;;;5045264;28;19954;-44
2022/02/15 12:21:57;;;;;;;;;;;23.60;32.60;;;;;;5047065;28;19927;-50
2022/02/15 12:24:24;;;;;;;;;;;23.60;32.50;;;;;;5036511;28;19916;-44
2022/02/15 12:26:53;;;;;;;;;;;23.60;32.50;;;;;;5042105;28;19912;-45
2022/02/15 12:29:19;;;;;;;;;;;23.70;32.50;;;;;;5042545;28;19971;-46
2022/02/15 12:31:45;;;;;;;;;;;23.70;32.50;;;;;;5043146;28;19960;-45
2022/02/15 12:34:11;;;;;;;;;;;23.70;32.50;;;;;;5046486;28;19919;-45
2022/02/15 12:36:37;;;;;;;;;;;23.70;32.50;;;;;;5044750;28;19905;-44
2022/02/15 12:39:04;;;;;;;;;;;23.70;32.50;;;;;;5043634;28;20328;-44
2022/02/15 12:41:33;;;;;;;;;;;23.70;32.50;;;;;;5043391;28;19904;-43
2022/02/15 12:43:59;;;;;;;;;;;23.70;32.40;;;;;;5044224;28;19905;-43
2022/02/15 12:46:25;;;;;;;;;;;23.70;32.40;;;;;;5047485;28;20007;-47
2022/02/15 12:48:51;;;;;;;;;;;23.70;32.40;;;;;;5046417;28;19995;-45
2022/02/15 12:51:17;;;;;;;;;;;23.70;32.40;;;;;;5048748;28;19992;-45
2022/02/15 12:53:49;;;;;;;;;;;23.70;32.40;;;;;;5045633;28;19927;-42
2022/02/15 12:56:15;;;;;;;;;;;23.80;32.40;;;;;;5047637;28;20003;-43
2022/02/15 12:58:46;;;;;;;;;;;23.80;32.40;;;;;;5047348;28;20075;-44
2022/02/15 13:01:14;;;;;;;;;;;23.80;32.40;;;;;;5046512;28;19925;-43
2022/02/15 13:03:43;;;;;;;;;;;23.80;32.30;;;;;;5047979;28;19917;-43
2022/02/15 13:06:09;;;;;;;;;;;23.80;32.30;;;;;;5027636;28;19916;-45
2022/02/15 13:08:43;;;;;;;;;;;23.80;32.30;;;;;;5043634;28;19916;-46
2022/02/15 13:11:09;;;;;;;;;;;23.90;32.30;;;;;;5050864;28;19905;-46
2022/02/15 13:13:35;;;;;;;;;;;23.80;32.20;;;;;;5045989;28;19916;-47
2022/02/15 13:16:03;;;;;;;;;;;23.80;32.20;;;;;;5044234;28;20294;-47
2022/02/15 13:18:29;;;;;;;;;;;23.90;32.20;;;;;;5046315;28;19996;-54
2022/02/15 13:20:54;;;;;;;;;;;23.90;32.10;;;;;;5043769;28;20069;-47
2022/02/15 13:23:20;;;;;;;;;;;23.90;32.10;;;;;;5047977;28;19916;-44
2022/02/15 13:25:47;;;;;;;;;;;23.90;32.00;;;;;;5046756;28;19917;-50
2022/02/15 13:28:13;;;;;;;;;;;23.90;32.00;;;;;;5044934;28;19962;-43
2022/02/15 13:30:42;;;;;;;;;;;23.90;32.00;;;;;;5040580;28;19908;-45
2022/02/15 13:33:09;;;;;;;;;;;23.90;32.00;;;;;;5049030;28;19924;-45
2022/02/15 13:35:36;;;;;;;;;;;23.90;31.90;;;;;;5044378;28;19905;-49
2022/02/15 13:38:05;;;;;;;;;;;23.90;31.90;;;;;;5043071;28;19917;-49
2022/02/15 13:40:31;;;;;;;;;;;23.90;31.80;;;;;;5043555;28;20355;-43
2022/02/15 13:42:58;;;;;;;;;;;23.90;31.80;;;;;;5047144;28;19936;-50
2022/02/15 13:45:24;;;;;;;;;;;23.90;31.80;;;;;;5045642;28;19904;-48
2022/02/15 13:47:50;;;;;;;;;;;23.90;31.70;;;;;;5049560;28;20243;-53
2022/02/15 13:50:19;;;;;;;;;;;23.90;31.70;;;;;;5049402;28;20252;-45
2022/02/15 13:52:44;;;;;;;;;;;23.90;31.70;;;;;;5044693;28;19923;-51
2022/02/15 13:55:11;;;;;;;;;;;23.90;31.60;;;;;;5047351;28;19992;-55
2022/02/15 13:57:38;;;;;;;;;;;23.90;31.60;;;;;;5041275;28;19928;-46
2022/02/15 14:00:05;;;;;;;;;;;23.90;31.70;;;;;;5045591;28;19924;-45
2022/02/15 14:02:40;;;;;;;;;;;24.00;31.80;;;;;;5047123;28;19912;-54
2022/02/15 14:05:09;;;;;;;;;;;24.00;31.90;;;;;;5046212;28;19962;-52
2022/02/15 14:07:35;;;;;;;;;;;24.00;31.90;;;;;;5044643;28;19974;-54
2022/02/15 14:10:00;;;;;;;;;;;24.10;32.00;;;;;;5028808;28;19944;-47
2022/02/15 14:12:28;;;;;;;;;;;24.10;32.10;;;;;;5045180;28;19939;-48
2022/02/15 14:14:56;;;;;;;;;;;24.10;32.10;;;;;;5043220;28;19904;-48
2022/02/15 14:20:07;;;;;;;;;;;24.10;32.20;;;;;;5044926;28;19905;-51
2022/02/15 14:22:34;;;;;;;;;;;24.10;32.20;;;;;;5043266;28;19992;-55
2022/02/15 14:24:59;;;;;;;;;;;24.10;32.30;;;;;;5045925;28;19905;-51
2022/02/15 14:27:25;;;;;;;;;;;24.10;32.30;;;;;;5046116;28;19928;-56